Data for 07/12/2014

Time Sea-Level Adjusted Pressure Absolute Pressure Temperature Relative Humidity Dew Point   
(mb) (inHg) (mb) (inHg) (C) (F) (%) (C) (F)
00:05 1024 30.24 854 25.22 19.1 66.5 60 11.4 52.4
00:10 1025 30.27 854 25.22 19.1 66.4 64 12.2 53.9
00:15 1025 30.27 854 25.22 18.2 64.8 71 13 55.4
00:20 1025 30.27 855 25.25 17.2 62.9 79 13.5 56.4
00:25 1025 30.27 855 25.25 16.2 61.1 82 13.1 55.7
00:30 1026 30.3 855 25.25 15.7 60.2 83 12.8 55
00:35 1026 30.3 855 25.25 15.6 60 82 12.6 54.7
00:40 1026 30.3 855 25.25 15.6 60.1 82 12.6 54.7
00:45 1026 30.3 855 25.25 15.6 60 84 12.9 55.2
00:50 1026 30.3 855 25.25 15.5 59.8 86 13.2 55.7
00:55 1025 30.27 855 25.25 15.3 59.5 87 13.1 55.5
01:00 1026 30.3 855 25.25 15 59 88 13 55.4
01:05 1025 30.27 854 25.22 14.9 58.8 88 13 55.4
01:10 1025 30.27 854 25.22 14.7 58.5 89 13 55.3
01:15 1025 30.27 854 25.22 14.7 58.4 89 12.9 55.3
01:20 1025 30.27 854 25.22 14.5 58.1 90 12.8 55.1
01:25 1024 30.24 854 25.22 14.4 57.9 88 12.5 54.6
01:30 1024 30.24 854 25.22 14.4 58 89 12.6 54.7
01:35 1024 30.24 853 25.19 14.5 58 89 12.7 54.8
01:40 1024 30.24 853 25.19 14.4 58 88 12.6 54.6
01:45 1024 30.24 853 25.19 14.7 58.4 86 12.4 54.3
01:50 1024 30.24 853 25.19 15.1 59.1 85 12.5 54.5
01:55 1024 30.24 853 25.19 15.2 59.3 84 12.6 54.7
02:00 1024 30.24 853 25.19 15.3 59.5 86 12.9 55.2
02:05 1024 30.24 854 25.22 15.2 59.4 86 12.9 55.2
02:10 1025 30.27 854 25.22 15.1 59.2 88 13.1 55.7
02:15 1025 30.27 854 25.22 15.1 59.2 80 11.8 53.2
02:20 1025 30.27 854 25.22 15.8 60.4 81 12.6 54.7
02:25 1025 30.27 854 25.22 15.4 59.7 86 13.2 55.7
02:30 1025 30.27 855 25.25 14.9 58.7 89 13.1 55.6
02:35 1025 30.27 855 25.25 14.6 58.4 88 12.7 54.9
02:40 1025 30.27 854 25.22 14.7 58.4 88 12.8 55
02:45 1025 30.27 854 25.22 14.8 58.6 86 12.4 54.4
02:50 1025 30.27 854 25.22 14.9 58.8 86 12.5 54.6
02:55 1025 30.27 854 25.22 14.9 58.8 87 12.7 54.9
03:00 1024 30.24 854 25.22 14.8 58.7 86 12.5 54.5
03:05 1024 30.24 853 25.19 14.9 58.8 86 12.6 54.7
03:10 1024 30.24 853 25.19 15 58.9 85 12.5 54.5
03:15 1024 30.24 853 25.19 15 59.1 84 12.3 54.1
03:20 1024 30.24 853 25.19 15.1 59.2 82 12.1 53.8
03:25 1024 30.24 853 25.19 15.2 59.3 83 12.3 54.1
03:30 1024 30.24 853 25.19 14.9 58.9 83 12.2 53.9
03:35 1024 30.24 853 25.19 14.9 58.8 83 12.1 53.8
03:40 1024 30.24 853 25.19 14.8 58.6 84 12.1 53.8
03:45 1024 30.24 853 25.19 14.6 58.3 84 11.9 53.5
03:50 1024 30.24 853 25.19 14.5 58 86 12.1 53.8
03:55 1024 30.24 854 25.22 14.5 58 83 11.6 52.8
04:00 1024 30.24 853 25.19 14.8 58.6 82 11.8 53.2
04:05 1024 30.24 854 25.22 15 59 81 11.7 53.1
04:10 1025 30.27 854 25.22 15.1 59.1 80 11.7 53.1
04:15 1025 30.27 854 25.22 15.1 59.1 82 12 53.6
04:20 1025 30.27 854 25.22 14.8 58.6 84 12.2 53.9
04:25 1025 30.27 854 25.22 14.4 58 87 12.3 54.1
04:30 1025 30.27 854 25.22 14.2 57.6 88 12.4 54.3
04:35 1025 30.27 854 25.22 14.1 57.3 89 12.4 54.3
04:40 1025 30.27 854 25.22 14 57.1 90 12.4 54.3
04:45 1025 30.27 854 25.22 14 57.1 90 12.3 54.2
04:50 1025 30.27 854 25.22 14 57.3 89 12.3 54.2
04:55 1025 30.27 854 25.22 14.1 57.3 88 12.2 54
05:00 1025 30.27 854 25.22 14 57.3 89 12.3 54.1
05:05 1025 30.27 854 25.22 14 57.2 88 12.1 53.8
05:10 1025 30.27 854 25.22 14.2 57.5 86 11.8 53.3
05:15 1025 30.27 855 25.25 14.6 58.3 83 11.8 53.2
05:20 1025 30.27 855 25.25 14.7 58.5 83 11.9 53.4
05:25 1026 30.3 855 25.25 14.5 58 84 11.8 53.2
05:30 1026 30.3 855 25.25 14.3 57.7 84 11.7 53
05:35 1026 30.3 855 25.25 14.2 57.5 85 11.7 53
05:40 1026 30.3 855 25.25 13.9 57.1 87 11.8 53.2
05:45 1026 30.3 855 25.25 13.7 56.6 88 11.7 53.1
05:50 1026 30.3 855 25.25 13.6 56.5 88 11.7 53
05:55 1026 30.3 855 25.25 13.6 56.5 89 11.8 53.2
06:00 1026 30.3 855 25.25 13.6 56.5 88 11.6 52.9
06:05 1026 30.3 855 25.25 13.8 56.9 87 11.8 53.2
06:10 1026 30.3 855 25.25 14.2 57.5 85 11.7 53.1
06:15 1026 30.3 855 25.25 14.4 57.9 84 11.8 53.3
06:20 1026 30.3 855 25.25 14.3 57.7 83 11.4 52.5
06:25 1026 30.3 855 25.25 14.1 57.4 84 11.4 52.5
06:30 1026 30.3 855 25.25 14.2 57.6 82 11.2 52.2
06:35 1026 30.3 855 25.25 14.5 58.2 81 11.4 52.4
06:40 1026 30.3 855 25.25 14.9 58.8 79 11.2 52.2
06:45 1026 30.3 855 25.25 15.4 59.7 77 11.4 52.6
06:50 1026 30.3 855 25.25 15.7 60.3 77 11.7 53
06:55 1026 30.3 855 25.25 16 60.7 74 11.4 52.6
07:00 1026 30.3 855 25.25 16.2 61.1 73 11.4 52.6
07:05 1026 30.3 855 25.25 16.7 62.1 71 11.5 52.7
07:10 1026 30.3 855 25.25 17.2 62.9 69 11.5 52.6
07:15 1026 30.3 855 25.25 17.1 62.8 69 11.5 52.7
07:20 1026 30.3 855 25.25 17.6 63.6 69 11.8 53.3
07:25 1026 30.3 855 25.25 18.3 65 66 12 53.7
07:30 1026 30.3 855 25.25 18.8 65.8 67 12.5 54.5
07:35 1026 30.3 855 25.25 18.3 64.9 67 12.1 53.7
07:40 1026 30.3 855 25.25 18.3 64.9 66 11.9 53.4
07:45 1026 30.3 855 25.25 18.2 64.8 67 12 53.5
07:50 1026 30.3 855 25.25 18.5 65.4 65 11.9 53.4
07:55 1026 30.3 855 25.25 18.7 65.7 64 11.9 53.5
08:00 1026 30.3 855 25.25 18.8 65.8 65 12.1 53.9
08:05 1026 30.3 855 25.25 18.7 65.6 65 12.1 53.8
08:10 1026 30.3 855 25.25 19.5 67.1 63 12.3 54.1
08:15 1026 30.3 855 25.25 18.4 65.2 67 12.3 54.2
08:20 1026 30.3 855 25.25 18.4 65.1 66 12.1 53.8
08:25 1026 30.3 855 25.25 19.1 66.4 62 11.7 53
08:30 1026 30.3 856 25.28 20.2 68.4 58 11.9 53.5
08:35 1026 30.3 856 25.28 20 68 59 11.8 53.2
08:40 1026 30.3 856 25.28 20.4 68.7 59 12.2 53.9
08:45 1026 30.3 856 25.28 20.3 68.5 59 12 53.6
08:50 1026 30.3 856 25.28 20 68 56 11.1 52
08:55 1026 30.3 856 25.28 19.9 67.9 56 11.1 52.1
09:00 1026 30.3 856 25.28 20.7 69.3 54 11.3 52.4
09:05 1026 30.3 856 25.28 20.9 69.7 54 11.4 52.6
09:10 1026 30.3 856 25.28 21.5 70.6 53 11.7 53
09:15 1026 30.3 856 25.28 21.8 71.3 51 11.5 52.6
09:20 1026 30.3 856 25.28 22 71.7 51 11.7 53
09:25 1026 30.3 856 25.28 21.4 70.4 55 12.2 54
09:30 1026 30.3 856 25.28 21.1 70 55 11.9 53.4
09:35 1027 30.33 856 25.28 22 71.5 52 11.7 53
09:40 1027 30.33 856 25.28 21.9 71.3 54 12.2 53.9
09:45 1027 30.33 856 25.28 21.7 71.1 51 11.3 52.3
09:50 1027 30.33 856 25.28 22.9 73.1 50 12 53.6
09:55 1027 30.33 856 25.28 23.2 73.8 46 11.2 52.2
10:00 1027 30.33 856 25.28 23.4 74.2 49 12.3 54.1
10:05 1027 30.33 856 25.28 22.7 72.8 49 11.6 52.9
10:10 1027 30.33 856 25.28 23.6 74.4 47 11.6 52.9
10:15 1027 30.33 856 25.28 23.7 74.7 47 11.8 53.3
10:20 1027 30.33 856 25.28 23.6 74.5 48 12.1 53.8
10:25 1027 30.33 856 25.28 22.9 73.2 47 11 51.9
10:30 1027 30.33 856 25.28 23.8 74.9 44 11.2 52.1
10:35 1027 30.33 856 25.28 23.5 74.3 46 11.5 52.6
10:40 1027 30.33 856 25.28 23.4 74 46 11.2 52.1
10:45 1027 30.33 856 25.28 23 73.5 47 11.3 52.4
10:50 1027 30.33 856 25.28 23.4 74.1 47 11.6 52.8
10:55 1027 30.33 856 25.28 23.3 73.9 48 11.7 53.1
11:00 1027 30.33 856 25.28 23.4 74.2 45 11.1 52
11:05 1027 30.33 856 25.28 23.8 74.9 45 11.3 52.4
11:10 1027 30.33 856 25.28 23.8 74.8 43 10.8 51.4
11:15 1027 30.33 856 25.28 23.8 74.9 45 11.4 52.5
11:20 1027 30.33 856 25.28 24.2 75.5 43 10.9 51.6
11:25 1027 30.33 856 25.28 25 77.1 42 11.4 52.5
11:30 1027 30.33 856 25.28 25.4 77.7 39 10.8 51.4
11:35 1027 30.33 856 25.28 25.6 78 39 10.8 51.4
11:40 1026 30.3 856 25.28 26.1 78.9 39 11.1 52
11:45 1026 30.3 856 25.28 25.9 78.7 38 10.7 51.3
11:50 1026 30.3 856 25.28 25.9 78.6 39 10.9 51.7
11:55 1026 30.3 856 25.28 26.4 79.5 35 9.9 49.8
12:00 1026 30.3 855 25.25 26.7 80 37 10.9 51.6
12:05 1026 30.3 855 25.25 26.6 79.9 37 10.9 51.7
12:10 1026 30.3 855 25.25 26.1 79 38 11 51.9
12:15 1026 30.3 855 25.25 25.3 77.5 38 10 50.1
12:20 1026 30.3 855 25.25 26.1 78.9 34 9.3 48.7
12:25 1026 30.3 855 25.25 26.4 79.6 36 10.3 50.6
12:30 1026 30.3 855 25.25 27 80.6 35 10.5 50.9
12:35 1026 30.3 855 25.25 27.3 81.2 36 11.2 52.2
12:40 1026 30.3 855 25.25 27.2 80.9 34 10.1 50.1
12:45 1026 30.3 855 25.25 27.4 81.3 34 10.4 50.7
12:50 1026 30.3 855 25.25 27.8 82 33 10.4 50.7
12:55 1026 30.3 855 25.25 27.6 81.6 35 11 51.8
13:00 1026 30.3 855 25.25 27 80.6 36 11.1 51.9
13:05 1026 30.3 855 25.25 27.5 81.5 35 11 51.8
13:10 1026 30.3 855 25.25 27.8 82 34 10.8 51.4
13:15 1026 30.3 855 25.25 28.3 82.9 32 10.5 51
13:20 1026 30.3 855 25.25 28.2 82.7 31 9.9 49.8
13:25 1026 30.3 855 25.25 28.2 82.8 33 10.6 51.1
13:30 1026 30.3 855 25.25 27.7 81.9 33 10.1 50.1
13:35 1026 30.3 855 25.25 28.7 83.6 32 10.8 51.5
13:40 1025 30.27 855 25.25 28.4 83.2 32 10.6 51.1
13:45 1025 30.27 855 25.25 28.3 83 31 9.8 49.6
13:50 1025 30.27 855 25.25 28.4 83.1 34 11.2 52.2
13:55 1025 30.27 855 25.25 27.9 82.3 32 10.2 50.3
14:00 1025 30.27 855 25.25 28.5 83.2 31 10 50
14:05 1025 30.27 855 25.25 28.3 83 30 9.6 49.2
14:10 1025 30.27 855 25.25 28.8 83.8 28 8.9 48
14:15 1025 30.27 855 25.25 29.2 84.6 30 10.1 50.2
14:20 1025 30.27 855 25.25 28.6 83.4 30 9.7 49.4
14:25 1025 30.27 854 25.22 28.5 83.3 26 7.4 45.3
14:30 1025 30.27 854 25.22 27.9 82.2 29 8.6 47.5
14:35 1025 30.27 854 25.22 27.9 82.2 29 8.6 47.5
14:40 1025 30.27 854 25.22 28 82.3 27 7.4 45.3
14:45 1025 30.27 854 25.22 29 84.2 23 6.2 43.2
14:50 1025 30.27 854 25.22 28.9 84 25 7.2 44.9
14:55 1025 30.27 854 25.22 28.5 83.4 24 6.2 43.2
15:00 1025 30.27 854 25.22 28.8 83.8 21 4.7 40.4
15:05 1025 30.27 854 25.22 28.9 84 24 6.6 43.8
15:10 1025 30.27 854 25.22 29 84.1 25 7.4 45.4
15:15 1025 30.27 854 25.22 28.1 82.6 26 6.9 44.5
15:20 1025 30.27 854 25.22 28.4 83 25 7 44.6
15:25 1025 30.27 854 25.22 29.1 84.3 25 7.2 44.9
15:30 1025 30.27 854 25.22 29.1 84.4 24 6.6 43.9
15:35 1025 30.27 854 25.22 28.4 83.1 21 4 39.3
15:40 1025 30.27 854 25.22 28.5 83.2 22 5.2 41.3
15:45 1025 30.27 854 25.22 28.6 83.5 22 5.4 41.7
15:50 1025 30.27 854 25.22 28.1 82.7 24 5.9 42.7
15:55 1025 30.27 854 25.22 28.7 83.6 22 5.5 41.9
16:00 1025 30.27 854 25.22 29.3 84.7 22 5.4 41.8
16:05 1025 30.27 854 25.22 29 84.2 23 6.3 43.3
16:10 1025 30.27 854 25.22 28.7 83.6 22 5.3 41.5
16:15 1025 30.27 854 25.22 29.1 84.3 23 6.2 43.1
16:20 1025 30.27 854 25.22 28.8 83.8 24 6.6 44
16:25 1025 30.27 854 25.22 28.9 84 24 6.8 44.3
16:30 1025 30.27 854 25.22 28.8 83.9 24 6.8 44.2
16:35 1025 30.27 854 25.22 28.6 83.5 24 6.7 44
16:40 1025 30.27 854 25.22 29.6 85.2 22 6.2 43.2
16:45 1025 30.27 854 25.22 29.7 85.5 22 5.9 42.6
16:50 1025 30.27 854 25.22 29.7 85.5 21 5.3 41.6
16:55 1025 30.27 854 25.22 28.9 84.1 21 5 41
17:00 1025 30.27 854 25.22 29.3 84.7 23 6.5 43.7
17:05 1025 30.27 854 25.22 28.7 83.7 24 6.7 44.1
17:10 1025 30.27 854 25.22 27.8 82 26 6.9 44.5
17:15 1025 30.27 854 25.22 27.3 81.2 27 7 44.6
17:20 1025 30.27 854 25.22 27.2 81 27 6.7 44
17:25 1025 30.27 854 25.22 27.7 81.8 26 7 44.6
17:30 1025 30.27 854 25.22 27.7 81.9 26 6.9 44.5
17:35 1025 30.27 854 25.22 27 80.6 27 6.8 44.2
17:40 1025 30.27 854 25.22 26.9 80.4 26 6.3 43.3
17:45 1025 30.27 854 25.22 26.7 80.1 30 8.2 46.8
17:50 1025 30.27 854 25.22 26.5 79.6 29 7.4 45.3
17:55 1025 30.27 854 25.22 26.5 79.7 29 7 44.7
18:00 1025 30.27 854 25.22 26.5 79.7 30 7.7 45.8
18:05 1025 30.27 854 25.22 26.4 79.5 27 6.3 43.3
18:10 1025 30.27 854 25.22 26.4 79.5 31 8.1 46.5
18:15 1025 30.27 854 25.22 26.3 79.4 30 7.9 46.1
18:20 1025 30.27 854 25.22 26.2 79.1 32 8.4 47.1
18:25 1025 30.27 854 25.22 26 78.7 35 9.7 49.5
18:30 1025 30.27 854 25.22 25.7 78.2 39 11 51.8
18:35 1025 30.27 854 25.22 25.4 77.7 40 11.1 51.9
18:40 1025 30.27 854 25.22 25.4 77.6 40 10.9 51.7
18:45 1025 30.27 854 25.22 25.4 77.7 39 10.6 51.1
18:50 1025 30.27 854 25.22 25.5 77.9 37 9.9 49.9
18:55 1025 30.27 854 25.22 25.6 78 44 12.6 54.7
19:00 1025 30.27 854 25.22 25.4 77.7 45 12.9 55.2
19:05 1025 30.27 854 25.22 25.2 77.4 49 14 57.2
19:10 1025 30.27 854 25.22 25.1 77.1 48 13.4 56.1
19:15 1025 30.27 854 25.22 24.8 76.6 55 15.3 59.5
19:20 1025 30.27 854 25.22 24.3 75.8 52 14 57.2
19:25 1025 30.27 854 25.22 24.1 75.4 51 13.7 56.6
19:30 1025 30.27 854 25.22 23.9 75.1 52 13.6 56.5
19:35 1025 30.27 854 25.22 23.7 74.7 52 13.6 56.4
19:40 1025 30.27 854 25.22 23.3 74 59 15.1 59.2
19:45 1025 30.27 854 25.22 23.1 73.5 58 14.4 57.9
19:50 1025 30.27 854 25.22 22.7 72.9 58 14.2 57.5
19:55 1025 30.27 854 25.22 22.5 72.6 60 14.5 58.1
20:00 1025 30.27 855 25.25 22.4 72.4 62 15 58.9
20:05 1025 30.27 855 25.25 22.3 72.1 60 14.2 57.6
20:10 1025 30.27 855 25.25 22.2 71.9 62 14.5 58.2
20:15 1025 30.27 855 25.25 22 71.6 58 13.5 56.2
20:20 1025 30.27 855 25.25 21.7 71.1 55 12.4 54.3
20:25 1025 30.27 855 25.25 21.3 70.3 56 12.2 53.9
20:30 1025 30.27 855 25.25 21 69.8 50 10.5 50.8
20:35 1025 30.27 855 25.25 20.9 69.6 50 10.1 50.3
20:40 1025 30.27 855 25.25 20.9 69.6 49 10 50.1
20:45 1026 30.3 855 25.25 20.6 69.1 54 11.1 52
20:50 1026 30.3 855 25.25 20.4 68.7 51 10.2 50.3
20:55 1026 30.3 855 25.25 20.5 68.9 49 9.4 49
21:00 1026 30.3 855 25.25 20.7 69.3 49 9.7 49.5
21:05 1026 30.3 855 25.25 20.6 69.1 50 9.8 49.7
21:10 1026 30.3 855 25.25 20.3 68.5 50 9.6 49.2
21:15 1026 30.3 855 25.25 20.3 68.6 48 9.2 48.5
21:20 1026 30.3 855 25.25 20.4 68.8 48 9.3 48.7
21:25 1026 30.3 855 25.25 20.4 68.7 50 9.7 49.4
21:30 1026 30.3 855 25.25 20.2 68.4 51 9.9 49.8
21:35 1026 30.3 855 25.25 20.1 68.2 52 10.1 50.2
21:40 1026 30.3 855 25.25 19.9 67.8 53 10.3 50.5
21:45 1026 30.3 855 25.25 19.7 67.4 54 10.4 50.7
21:50 1026 30.3 855 25.25 19.5 67.1 55 10.4 50.7
21:55 1026 30.3 855 25.25 19.4 66.9 56 10.5 50.8
22:00 1026 30.3 855 25.25 19.2 66.6 58 10.8 51.4
22:05 1026 30.3 855 25.25 19.3 66.7 55 10 50
22:10 1026 30.3 855 25.25 19.6 67.4 53 9.8 49.6
22:15 1026 30.3 855 25.25 20 67.9 52 9.8 49.7
22:20 1026 30.3 855 25.25 19.9 67.9 51 9.6 49.2
22:25 1026 30.3 855 25.25 19.9 67.8 50 9.3 48.7
22:30 1026 30.3 855 25.25 19.9 67.8 49 8.9 48
22:35 1026 30.3 855 25.25 20.1 68.1 51 9.7 49.4
22:40 1026 30.3 855 25.25 20 68.1 49 9.1 48.3
22:45 1026 30.3 855 25.25 19.8 67.7 49 8.9 48
22:50 1026 30.3 855 25.25 19.7 67.5 49 8.9 48.1
22:55 1026 30.3 855 25.25 19.4 67 52 9.5 49
23:00 1026 30.3 855 25.25 19.2 66.5 52 9.3 48.7
23:05 1026 30.3 855 25.25 18.6 65.4 55 9.4 48.9
23:10 1026 30.3 855 25.25 18.2 64.8 55 9.2 48.6
23:15 1026 30.3 855 25.25 18.2 64.7 55 9.2 48.6
23:20 1026 30.3 855 25.25 18.1 64.5 57 9.4 49
23:25 1026 30.3 855 25.25 18 64.3 57 9.3 48.8
23:30 1026 30.3 855 25.25 17.9 64.3 58 9.7 49.5
23:35 1026 30.3 855 25.25 18.1 64.5 56 9.2 48.5
23:40 1026 30.3 855 25.25 18 64.3 56 9.1 48.3
23:45 1026 30.3 855 25.25 17.7 63.8 56 8.8 47.8
23:50 1026 30.3 855 25.25 17.6 63.6 56 8.9 47.9
23:55 1026 30.3 855 25.25 17.6 63.6 57 9.2 48.5
24:00 1026 30.3 855 25.25 17.5 63.5 59 9.5 49.2